createdAt,value
2018-09-27T00:02:16.420Z,10.20
2018-09-27T00:04:45.396Z,10.30
2018-09-27T00:07:14.185Z,10.30
2018-09-27T00:09:42.958Z,10.40
2018-09-27T00:12:11.927Z,10.40
2018-09-27T00:14:40.723Z,10.50
2018-09-27T00:17:09.936Z,10.60
2018-09-27T00:19:38.779Z,10.50
2018-09-27T00:22:07.869Z,10.50
2018-09-27T00:24:36.679Z,10.50
2018-09-27T00:27:05.548Z,10.40
2018-09-27T00:29:34.329Z,10.40
2018-09-27T00:32:03.349Z,10.30
2018-09-27T00:34:32.220Z,10.20
2018-09-27T00:37:01.107Z,10.20
2018-09-27T00:39:29.936Z,10.10
2018-09-27T00:41:59.431Z,10.20
2018-09-27T00:44:28.378Z,10.20
2018-09-27T00:46:57.202Z,10.10
2018-09-27T00:49:26.335Z,10.10
2018-09-27T00:51:55.113Z,10.10
2018-09-27T00:54:24.184Z,10.10
2018-09-27T00:56:52.990Z,10.10
2018-09-27T00:59:21.827Z,10.00
2018-09-27T01:01:50.777Z,10.00
2018-09-27T01:04:19.591Z,10.00
2018-09-27T01:06:48.539Z,10.00
2018-09-27T01:09:17.586Z,10.00
2018-09-27T01:11:47.163Z,10.00
2018-09-27T01:14:16.176Z,10.00
2018-09-27T01:16:45.129Z,10.10
2018-09-27T01:19:14.070Z,10.00
2018-09-27T01:21:42.826Z,9.90
2018-09-27T01:24:11.610Z,9.90
2018-09-27T01:26:40.385Z,9.80
2018-09-27T01:29:09.787Z,9.80
2018-09-27T01:31:38.745Z,9.80
2018-09-27T01:34:07.470Z,9.80
2018-09-27T01:36:36.422Z,9.70
2018-09-27T01:39:06.928Z,9.60
2018-09-27T01:41:35.758Z,9.60
2018-09-27T01:44:04.907Z,9.50
2018-09-27T01:46:33.693Z,9.50
2018-09-27T01:49:02.416Z,9.50
2018-09-27T01:51:31.183Z,9.50
2018-09-27T01:54:00.047Z,9.50
2018-09-27T01:56:28.966Z,9.50
2018-09-27T01:58:57.746Z,9.40
2018-09-27T02:01:26.476Z,9.40
2018-09-27T02:03:55.187Z,9.40
2018-09-27T02:06:24.148Z,9.30
2018-09-27T02:08:52.890Z,9.30
2018-09-27T02:11:21.642Z,9.30
2018-09-27T02:13:50.418Z,9.20
2018-09-27T02:16:19.366Z,9.10
2018-09-27T02:18:48.152Z,9.10
2018-09-27T02:21:16.912Z,9.00
2018-09-27T02:23:45.749Z,9.00
2018-09-27T02:26:14.690Z,9.00
2018-09-27T02:28:43.540Z,9.00
2018-09-27T02:31:12.322Z,9.00
2018-09-27T02:33:41.320Z,8.90
2018-09-27T02:36:10.155Z,8.90
2018-09-27T02:38:38.897Z,8.90
2018-09-27T02:41:07.766Z,8.90
2018-09-27T02:43:36.495Z,8.90
2018-09-27T02:46:05.283Z,8.80
2018-09-27T02:48:34.052Z,8.80
2018-09-27T02:51:02.858Z,8.80
2018-09-27T02:53:31.645Z,8.80
2018-09-27T02:56:00.388Z,8.70
2018-09-27T02:58:29.089Z,8.70
2018-09-27T03:00:57.825Z,8.70
2018-09-27T03:03:26.610Z,8.80
2018-09-27T03:05:55.343Z,8.70
2018-09-27T03:08:24.047Z,8.80
2018-09-27T03:10:53.171Z,8.80
2018-09-27T03:13:22.090Z,8.80
2018-09-27T03:15:51.249Z,8.80
2018-09-27T03:18:20.390Z,8.70
2018-09-27T03:20:49.176Z,8.70
2018-09-27T03:23:17.987Z,8.70
2018-09-27T03:25:46.909Z,8.70
2018-09-27T03:28:15.748Z,8.70
2018-09-27T03:30:45.323Z,8.60
2018-09-27T03:33:14.158Z,8.60
2018-09-27T03:35:42.889Z,8.60
2018-09-27T03:38:11.629Z,8.60
2018-09-27T03:40:40.463Z,8.50
2018-09-27T03:43:09.168Z,8.50
2018-09-27T03:45:38.023Z,8.40
2018-09-27T03:48:06.819Z,8.40
2018-09-27T03:50:35.579Z,8.50
2018-09-27T03:53:04.352Z,8.50
2018-09-27T03:55:33.492Z,8.40
2018-09-27T03:58:02.263Z,8.50
2018-09-27T04:00:31.028Z,8.40
2018-09-27T04:02:59.838Z,8.40
2018-09-27T04:05:28.593Z,8.40
2018-09-27T04:07:57.499Z,8.40
2018-09-27T04:10:26.339Z,8.40
2018-09-27T04:12:55.101Z,8.30
2018-09-27T04:15:24.089Z,8.40
2018-09-27T04:17:52.909Z,8.40
2018-09-27T04:20:21.829Z,8.20
2018-09-27T04:22:50.612Z,8.20
2018-09-27T04:25:19.350Z,8.20
2018-09-27T04:27:48.192Z,8.10
2018-09-27T04:30:16.914Z,8.10
2018-09-27T04:32:45.698Z,8.10
2018-09-27T04:35:14.466Z,8.10
2018-09-27T04:37:43.265Z,8.10
2018-09-27T04:40:12.042Z,8.10
2018-09-27T04:42:40.820Z,8.10
2018-09-27T04:45:09.669Z,8.10
2018-09-27T04:47:38.434Z,8.10
2018-09-27T04:50:07.258Z,8.10
2018-09-27T04:52:36.025Z,8.10
2018-09-27T04:55:04.889Z,8.10
2018-09-27T04:57:33.632Z,8.10
2018-09-27T05:00:02.556Z,8.10
2018-09-27T05:02:31.266Z,8.10
2018-09-27T05:05:00.084Z,8.10
2018-09-27T05:07:28.911Z,8.10
2018-09-27T05:09:57.827Z,8.10
2018-09-27T05:12:26.601Z,8.00
2018-09-27T05:14:55.644Z,8.00
2018-09-27T05:17:24.352Z,8.00
2018-09-27T05:19:53.187Z,8.00
2018-09-27T05:22:21.884Z,8.00
2018-09-27T05:24:50.683Z,8.00
2018-09-27T05:27:19.723Z,8.00
2018-09-27T05:29:48.440Z,8.00
2018-09-27T05:32:17.182Z,8.00
2018-09-27T05:34:46.826Z,7.90
2018-09-27T05:37:15.796Z,7.90
2018-09-27T05:39:44.631Z,7.90
2018-09-27T05:42:13.400Z,8.00
2018-09-27T05:44:42.250Z,8.00
2018-09-27T05:47:11.890Z,8.00
2018-09-27T05:49:40.907Z,8.00
2018-09-27T05:52:09.742Z,8.10
2018-09-27T05:54:38.687Z,8.10
2018-09-27T05:57:07.596Z,8.10
2018-09-27T05:59:36.520Z,8.20
2018-09-27T06:02:05.564Z,8.20
2018-09-27T06:04:34.429Z,8.20
2018-09-27T06:07:03.258Z,8.30
2018-09-27T06:09:32.142Z,8.30
2018-09-27T06:12:01.024Z,8.30
2018-09-27T06:14:30.258Z,8.30
2018-09-27T06:16:59.113Z,8.40
2018-09-27T06:19:27.963Z,8.40
2018-09-27T06:21:56.748Z,8.50
2018-09-27T06:24:25.788Z,8.50
2018-09-27T06:26:54.621Z,8.50
2018-09-27T06:29:23.473Z,8.60
2018-09-27T06:31:52.241Z,8.60
2018-09-27T06:34:21.094Z,8.60
2018-09-27T06:36:49.896Z,8.60
2018-09-27T06:39:18.648Z,8.70
2018-09-27T06:41:47.563Z,8.70
2018-09-27T06:44:16.558Z,8.80
2018-09-27T06:46:45.648Z,8.90
2018-09-27T06:49:14.470Z,8.90
2018-09-27T06:51:43.500Z,9.00
2018-09-27T06:54:12.280Z,9.10
2018-09-27T06:56:41.351Z,9.20
2018-09-27T06:59:11.003Z,9.20
2018-09-27T07:01:40.063Z,9.30
2018-09-27T07:04:09.390Z,9.30
2018-09-27T07:06:38.351Z,9.30
2018-09-27T07:09:10.840Z,9.40
2018-09-27T07:11:40.242Z,9.50
2018-09-27T07:14:10.016Z,9.60
2018-09-27T07:16:39.277Z,9.70
2018-09-27T07:19:08.627Z,9.80
2018-09-27T07:21:37.507Z,9.90
2018-09-27T07:24:06.804Z,10.00
2018-09-27T07:26:35.848Z,10.10
2018-09-27T07:29:04.813Z,10.10
2018-09-27T07:31:33.848Z,10.20
2018-09-27T07:34:03.081Z,10.30
2018-09-27T07:36:32.154Z,10.40
2018-09-27T07:39:01.301Z,10.50
2018-09-27T07:41:30.428Z,10.50
2018-09-27T07:43:59.400Z,10.60
2018-09-27T07:46:28.364Z,10.70
2018-09-27T07:48:57.524Z,10.80
2018-09-27T07:51:26.405Z,10.90
2018-09-27T07:53:55.519Z,11.10
2018-09-27T07:56:24.736Z,11.20
2018-09-27T07:58:53.880Z,11.30
2018-09-27T08:01:23.162Z,11.40
2018-09-27T08:03:52.171Z,11.60
2018-09-27T08:06:21.247Z,11.70
2018-09-27T08:08:50.205Z,11.90
2018-09-27T08:11:19.488Z,12.00
2018-09-27T08:13:48.618Z,12.10
2018-09-27T08:16:17.591Z,12.20
2018-09-27T08:18:46.735Z,12.30
2018-09-27T08:21:16.063Z,12.50
2018-09-27T08:23:45.136Z,12.60
2018-09-27T08:26:14.017Z,12.70
2018-09-27T08:28:43.009Z,12.80
2018-09-27T08:31:12.173Z,13.10
2018-09-27T08:33:41.363Z,13.20
2018-09-27T08:36:10.509Z,13.40
2018-09-27T08:38:39.497Z,13.50
2018-09-27T08:41:08.609Z,13.60
2018-09-27T08:43:37.583Z,13.80
2018-09-27T08:46:06.720Z,14.00
2018-09-27T08:48:35.589Z,14.20
2018-09-27T08:51:04.572Z,14.30
2018-09-27T08:53:33.932Z,14.40
2018-09-27T08:56:03.482Z,14.70
2018-09-27T08:58:32.546Z,14.80
2018-09-27T09:01:01.572Z,14.90
2018-09-27T09:03:30.863Z,15.10
2018-09-27T09:06:00.093Z,15.30
2018-09-27T09:08:29.711Z,15.50
2018-09-27T09:10:58.713Z,15.60
2018-09-27T09:13:27.861Z,15.80
2018-09-27T09:15:56.765Z,15.90
2018-09-27T09:18:25.942Z,16.10
2018-09-27T09:20:56.000Z,16.40
2018-09-27T09:23:25.277Z,16.70
2018-09-27T09:25:54.343Z,16.90
2018-09-27T09:28:23.530Z,17.20
2018-09-27T09:30:52.469Z,17.40
2018-09-27T09:33:21.805Z,17.80
2018-09-27T09:35:51.028Z,18.00
2018-09-27T09:38:20.364Z,18.20
2018-09-27T09:40:49.702Z,18.50
2018-09-27T09:43:18.875Z,18.80
2018-09-27T09:45:48.093Z,19.00
2018-09-27T09:48:17.257Z,19.20
2018-09-27T09:50:46.335Z,19.80
2018-09-27T09:53:15.489Z,20.10
2018-09-27T09:55:44.361Z,20.30
2018-09-27T09:58:13.349Z,20.50
2018-09-27T10:00:42.305Z,20.50
2018-09-27T10:03:11.385Z,20.70
2018-09-27T10:05:41.648Z,21.00
2018-09-27T10:08:10.845Z,21.20
2018-09-27T10:10:40.051Z,21.40
2018-09-27T10:13:09.055Z,21.60
2018-09-27T10:15:37.958Z,21.80
2018-09-27T10:18:06.963Z,22.10
2018-09-27T10:20:35.944Z,22.30
2018-09-27T10:23:05.270Z,22.70
2018-09-27T10:25:34.133Z,22.90
2018-09-27T10:28:03.438Z,23.30
2018-09-27T10:30:32.553Z,23.90
2018-09-27T10:33:02.008Z,24.00
2018-09-27T10:35:31.536Z,24.20
2018-09-27T10:38:00.840Z,24.60
2018-09-27T10:40:29.760Z,24.70
2018-09-27T10:42:58.916Z,24.80
2018-09-27T10:45:28.172Z,25.00
2018-09-27T10:47:57.379Z,25.20
2018-09-27T10:50:26.235Z,25.40
2018-09-27T10:52:55.565Z,25.50
2018-09-27T10:55:24.864Z,25.70
2018-09-27T10:57:53.817Z,25.80
2018-09-27T11:00:23.883Z,26.20
2018-09-27T11:02:53.894Z,26.60
2018-09-27T11:05:22.866Z,27.00
2018-09-27T11:07:51.797Z,27.10
2018-09-27T11:10:21.121Z,26.90
2018-09-27T11:12:50.200Z,27.00
2018-09-27T11:15:19.203Z,27.10
2018-09-27T11:17:48.406Z,27.30
2018-09-27T11:20:17.706Z,27.70
2018-09-27T11:22:46.736Z,27.60
2018-09-27T11:25:16.045Z,27.80
2018-09-27T11:27:45.439Z,28.10
2018-09-27T11:32:54.234Z,28.50
2018-09-27T11:35:23.321Z,28.50
2018-09-27T11:37:52.440Z,28.90
2018-09-27T11:40:21.463Z,29.30
2018-09-27T11:42:50.590Z,29.30
2018-09-27T11:45:20.078Z,29.10
2018-09-27T11:47:49.261Z,29.00
2018-09-27T11:50:18.339Z,29.40
2018-09-27T11:52:47.236Z,29.70
2018-09-27T11:55:17.180Z,30.40
2018-09-27T11:57:46.356Z,31.20
2018-09-27T12:00:16.003Z,31.40
2018-09-27T12:02:44.996Z,31.50
2018-09-27T12:05:14.376Z,31.70
2018-09-27T12:07:43.650Z,31.60
2018-09-27T12:10:12.844Z,32.00
2018-09-27T12:12:42.230Z,32.30
2018-09-27T12:15:11.185Z,32.60
2018-09-27T12:17:40.209Z,32.80
2018-09-27T12:20:09.828Z,33.00
2018-09-27T12:22:38.828Z,33.20
2018-09-27T12:25:08.341Z,33.20
2018-09-27T12:27:37.343Z,33.00
2018-09-27T12:30:06.604Z,33.20
2018-09-27T12:32:36.485Z,33.70
2018-09-27T12:35:05.507Z,34.00
2018-09-27T12:37:34.393Z,34.40
2018-09-27T12:40:03.602Z,34.30
2018-09-27T12:42:32.486Z,33.80
2018-09-27T12:45:01.628Z,33.80
2018-09-27T12:47:30.484Z,33.70
2018-09-27T12:49:59.444Z,33.60
2018-09-27T12:52:28.599Z,33.60
2018-09-27T12:54:57.486Z,34.00
2018-09-27T12:57:26.879Z,35.00
2018-09-27T12:59:56.245Z,34.70
2018-09-27T13:02:25.218Z,35.70
2018-09-27T13:04:54.115Z,35.80
2018-09-27T13:07:23.125Z,36.20
2018-09-27T13:09:52.548Z,36.50
2018-09-27T13:12:21.710Z,36.50
2018-09-27T13:14:50.685Z,36.20
2018-09-27T13:17:19.908Z,36.20
2018-09-27T13:19:48.845Z,36.00
2018-09-27T13:22:18.166Z,35.80
2018-09-27T13:24:47.165Z,36.10
2018-09-27T13:27:16.437Z,36.00
2018-09-27T13:29:45.512Z,35.40
2018-09-27T13:32:15.302Z,35.80
2018-09-27T13:34:44.174Z,35.70
2018-09-27T13:37:13.499Z,35.10
2018-09-27T13:39:42.391Z,35.20
2018-09-27T13:42:11.194Z,36.00
2018-09-27T13:44:40.202Z,36.60
2018-09-27T13:47:09.293Z,36.70
2018-09-27T13:49:38.190Z,37.00
2018-09-27T13:52:07.600Z,37.10
2018-09-27T13:54:36.583Z,37.10
2018-09-27T13:57:05.551Z,37.40
2018-09-27T13:59:34.588Z,37.70
2018-09-27T14:02:03.469Z,37.90
2018-09-27T14:04:32.582Z,38.40
2018-09-27T14:07:01.539Z,39.00
2018-09-27T14:09:30.403Z,38.90
2018-09-27T14:11:59.346Z,38.70
2018-09-27T14:14:28.344Z,38.30
2018-09-27T14:16:57.384Z,38.30
2018-09-27T14:19:26.440Z,38.20
2018-09-27T14:21:55.666Z,37.30
2018-09-27T14:24:24.505Z,36.60
2018-09-27T14:26:53.462Z,36.70
2018-09-27T14:29:22.452Z,36.90
2018-09-27T14:31:51.476Z,37.20
2018-09-27T14:34:20.555Z,37.90
2018-09-27T14:36:49.607Z,38.00
2018-09-27T14:39:18.935Z,38.00
2018-09-27T14:41:47.902Z,37.60
2018-09-27T14:44:16.711Z,37.00
2018-09-27T14:46:45.554Z,36.20
2018-09-27T14:49:14.420Z,35.10
2018-09-27T14:51:43.428Z,33.80
2018-09-27T14:54:12.396Z,32.30
2018-09-27T14:56:41.296Z,31.30
2018-09-27T14:59:10.494Z,30.60
2018-09-27T15:01:45.917Z,30.00
2018-09-27T15:04:15.088Z,29.70
2018-09-27T15:06:44.234Z,29.50
2018-09-27T15:09:13.548Z,29.30
2018-09-27T15:11:42.756Z,29.50
2018-09-27T15:14:12.598Z,29.80
2018-09-27T15:16:41.445Z,29.70
2018-09-27T15:19:10.627Z,29.20
2018-09-27T15:21:39.781Z,28.90
2018-09-27T15:24:08.685Z,28.90
2018-09-27T15:26:37.965Z,28.80
2018-09-27T15:29:06.901Z,28.60
2018-09-27T15:31:38.523Z,28.20
2018-09-27T15:34:07.558Z,28.00
2018-09-27T15:36:36.624Z,27.90
2018-09-27T15:39:07.160Z,28.00
2018-09-27T15:41:36.026Z,28.90
2018-09-27T15:44:05.961Z,30.40
2018-09-27T15:46:34.840Z,32.00
2018-09-27T15:49:03.909Z,33.10
2018-09-27T15:51:33.013Z,33.50
2018-09-27T15:54:02.538Z,32.60
2018-09-27T15:56:31.455Z,31.20
2018-09-27T15:59:00.688Z,30.00
2018-09-27T16:01:31.608Z,29.00
2018-09-27T16:04:02.702Z,28.30
2018-09-27T16:06:33.772Z,27.60
2018-09-27T16:09:02.736Z,27.10
2018-09-27T16:11:31.674Z,26.70
2018-09-27T16:14:00.753Z,26.40
2018-09-27T16:16:29.852Z,26.20
2018-09-27T16:18:58.782Z,25.90
2018-09-27T16:21:27.677Z,25.70
2018-09-27T16:23:56.792Z,25.60
2018-09-27T16:26:25.722Z,25.40
2018-09-27T16:28:54.670Z,25.30
2018-09-27T16:31:23.652Z,25.20
2018-09-27T16:33:52.418Z,25.00
2018-09-27T16:36:21.278Z,24.90
2018-09-27T16:38:50.212Z,24.70
2018-09-27T16:41:19.082Z,24.60
2018-09-27T16:43:48.751Z,24.40
2018-09-27T16:46:17.788Z,24.30
2018-09-27T16:48:46.922Z,24.20
2018-09-27T16:51:15.755Z,24.10
2018-09-27T16:53:44.758Z,23.90
2018-09-27T16:56:13.674Z,23.80
2018-09-27T16:58:42.559Z,23.70
2018-09-27T17:01:11.754Z,23.60
2018-09-27T17:03:40.860Z,23.40
2018-09-27T17:06:10.211Z,23.30
2018-09-27T17:08:39.326Z,23.10
2018-09-27T17:11:10.472Z,23.00
2018-09-27T17:13:41.631Z,22.90
2018-09-27T17:16:11.814Z,22.80
2018-09-27T17:18:42.181Z,22.70
2018-09-27T17:21:12.468Z,22.60
2018-09-27T17:23:43.620Z,22.40
2018-09-27T17:26:14.279Z,22.20
2018-09-27T17:28:44.625Z,22.00
2018-09-27T17:31:14.967Z,21.80
2018-09-27T17:33:45.432Z,21.60
2018-09-27T17:36:16.350Z,21.40
2018-09-27T17:38:47.306Z,21.30
2018-09-27T17:41:16.999Z,21.10
2018-09-27T17:43:46.581Z,20.90
2018-09-27T17:46:16.114Z,20.80
2018-09-27T17:48:45.640Z,20.80
2018-09-27T17:51:14.990Z,20.70
2018-09-27T17:53:44.385Z,20.50
2018-09-27T17:56:13.750Z,20.40
2018-09-27T17:58:43.064Z,20.40
2018-09-27T18:01:12.388Z,20.30
2018-09-27T18:03:41.788Z,20.20
2018-09-27T18:06:11.101Z,20.10
2018-09-27T18:08:40.678Z,20.10
2018-09-27T18:11:10.237Z,19.90
2018-09-27T18:13:40.708Z,19.90
2018-09-27T18:16:10.290Z,19.80
2018-09-27T18:18:39.849Z,19.70
2018-09-27T18:21:09.287Z,19.70
2018-09-27T18:23:39.038Z,19.60
2018-09-27T18:26:09.750Z,19.50
2018-09-27T18:28:39.308Z,19.50
2018-09-27T18:31:08.736Z,19.50
2018-09-27T18:33:38.244Z,19.40
2018-09-27T18:36:07.999Z,19.40
2018-09-27T18:38:37.480Z,19.30
2018-09-27T18:41:07.015Z,19.20
2018-09-27T18:43:36.642Z,19.00
2018-09-27T18:46:06.289Z,18.80
2018-09-27T18:48:35.762Z,18.70
2018-09-27T18:51:05.159Z,18.50
2018-09-27T18:53:34.830Z,18.40
2018-09-27T18:56:04.300Z,18.20
2018-09-27T18:58:33.702Z,18.00
2018-09-27T19:01:03.095Z,17.90
2018-09-27T19:03:32.809Z,17.80
2018-09-27T19:06:02.187Z,17.80
2018-09-27T19:08:32.620Z,17.80
2018-09-27T19:11:02.051Z,17.60
2018-09-27T19:13:31.658Z,17.60
2018-09-27T19:16:01.000Z,17.60
2018-09-27T19:18:30.286Z,17.60
2018-09-27T19:20:59.568Z,17.50
2018-09-27T19:23:29.106Z,17.50
2018-09-27T19:25:59.346Z,17.40
2018-09-27T19:28:28.798Z,17.30
2018-09-27T19:30:58.406Z,17.10
2018-09-27T19:33:27.951Z,17.00
2018-09-27T19:35:57.407Z,16.90
2018-09-27T19:38:26.674Z,16.80
2018-09-27T19:40:56.037Z,16.70
2018-09-27T19:43:25.690Z,16.60
2018-09-27T19:45:55.039Z,16.60
2018-09-27T19:48:24.748Z,16.50
2018-09-27T19:50:54.015Z,16.40
2018-09-27T19:53:23.483Z,16.30
2018-09-27T19:55:52.879Z,16.20
2018-09-27T19:58:23.783Z,16.10
2018-09-27T20:00:53.479Z,16.00
2018-09-27T20:03:22.855Z,16.00
2018-09-27T20:05:53.386Z,16.10
2018-09-27T20:08:22.808Z,16.10
2018-09-27T20:10:52.145Z,16.10
2018-09-27T20:13:21.500Z,16.10
2018-09-27T20:15:51.024Z,16.00
2018-09-27T20:18:20.952Z,15.90
2018-09-27T20:20:50.388Z,15.90
2018-09-27T20:23:19.962Z,15.80
2018-09-27T20:25:50.418Z,15.80
2018-09-27T20:28:19.927Z,15.70
2018-09-27T20:30:49.123Z,15.70
2018-09-27T20:33:18.414Z,15.70
2018-09-27T20:35:47.769Z,15.60
2018-09-27T20:38:17.319Z,15.60
2018-09-27T20:40:46.746Z,15.50
2018-09-27T20:43:16.963Z,15.50
2018-09-27T20:45:46.431Z,15.40
2018-09-27T20:48:15.875Z,15.40
2018-09-27T20:50:45.184Z,15.30
2018-09-27T20:53:14.589Z,15.20
2018-09-27T20:55:44.018Z,15.10
2018-09-27T20:58:13.306Z,15.10
2018-09-27T21:00:42.580Z,15.00
2018-09-27T21:03:11.861Z,15.00
2018-09-27T21:05:41.197Z,14.90
2018-09-27T21:08:10.806Z,14.90
2018-09-27T21:10:40.189Z,14.80
2018-09-27T21:13:09.492Z,14.80
2018-09-27T21:15:38.653Z,14.70
2018-09-27T21:18:07.657Z,14.70
2018-09-27T21:20:36.385Z,14.70
2018-09-27T21:23:05.385Z,14.60
2018-09-27T21:25:34.166Z,14.60
2018-09-27T21:28:03.028Z,14.50
2018-09-27T21:30:31.777Z,14.50
2018-09-27T21:33:00.648Z,14.40
2018-09-27T21:35:29.483Z,14.40
2018-09-27T21:37:58.464Z,14.30
2018-09-27T21:40:27.240Z,14.20
2018-09-27T21:42:56.291Z,14.20
2018-09-27T21:45:25.222Z,14.20
2018-09-27T21:47:53.974Z,14.10
2018-09-27T21:50:22.924Z,14.00
2018-09-27T21:52:51.645Z,13.90
2018-09-27T21:55:20.433Z,13.90
2018-09-27T21:57:49.340Z,13.80
2018-09-27T22:00:18.376Z,13.70
2018-09-27T22:02:47.118Z,13.70
2018-09-27T22:05:15.948Z,13.70
2018-09-27T22:07:44.808Z,13.60
2018-09-27T22:10:13.804Z,13.60
2018-09-27T22:12:42.580Z,13.50
2018-09-27T22:15:11.545Z,13.50
2018-09-27T22:17:40.332Z,13.50
2018-09-27T22:20:09.160Z,13.50
2018-09-27T22:22:37.959Z,13.50
2018-09-27T22:25:06.805Z,13.50
2018-09-27T22:27:35.768Z,13.40
2018-09-27T22:30:04.869Z,13.50
2018-09-27T22:32:33.707Z,13.40
2018-09-27T22:35:02.554Z,13.40
2018-09-27T22:37:31.263Z,13.40
2018-09-27T22:40:00.091Z,13.30
2018-09-27T22:42:28.849Z,13.30
2018-09-27T22:44:57.632Z,13.20
2018-09-27T22:47:26.422Z,13.20
2018-09-27T22:49:55.202Z,13.10
2018-09-27T22:52:24.020Z,13.10
2018-09-27T22:54:52.924Z,13.00
2018-09-27T22:57:21.669Z,13.00
2018-09-27T22:59:50.478Z,12.90
2018-09-27T23:02:19.369Z,12.90
2018-09-27T23:04:48.094Z,12.80
2018-09-27T23:07:16.976Z,12.70
2018-09-27T23:09:45.755Z,12.70
2018-09-27T23:12:14.571Z,12.60
2018-09-27T23:14:43.286Z,12.60
2018-09-27T23:17:12.026Z,12.60
2018-09-27T23:19:41.034Z,12.50
2018-09-27T23:22:09.985Z,12.50
2018-09-27T23:24:38.782Z,12.50
2018-09-27T23:27:07.574Z,12.50
2018-09-27T23:29:36.435Z,12.40
2018-09-27T23:32:05.208Z,12.40
2018-09-27T23:34:33.961Z,12.40
2018-09-27T23:37:02.823Z,12.40
2018-09-27T23:39:31.593Z,12.40
2018-09-27T23:42:00.413Z,12.50
2018-09-27T23:44:29.187Z,12.50
2018-09-27T23:46:58.002Z,12.60
2018-09-27T23:49:27.712Z,12.60
2018-09-27T23:51:56.554Z,12.50
2018-09-27T23:54:25.309Z,12.50
2018-09-27T23:56:54.187Z,12.60
2018-09-27T23:59:23.057Z,12.60
